createdAt,value
2022-11-29T00:00:39.974Z,37.5
2022-11-29T00:01:40.020Z,36.9286
2022-11-29T00:02:40.225Z,34.6429
2022-11-29T00:03:40.088Z,36.3571
2022-11-29T00:04:40.137Z,35.6429
2022-11-29T00:05:40.185Z,35.5
2022-11-29T00:06:40.200Z,36
2022-11-29T00:07:40.296Z,35.1429
2022-11-29T00:08:40.274Z,34.9286
2022-11-29T00:09:40.310Z,35.5
2022-11-29T00:10:40.345Z,34.1429
2022-11-29T00:11:40.382Z,35.2143
2022-11-29T00:12:40.434Z,36.7143
2022-11-29T00:13:40.470Z,37.9286
2022-11-29T00:14:40.501Z,36.9286
2022-11-29T00:15:40.533Z,35.3571
2022-11-29T00:16:40.598Z,36.2143
2022-11-29T00:17:40.590Z,35.5
2022-11-29T00:18:40.629Z,34.6429
2022-11-29T00:19:40.667Z,35
2022-11-29T00:20:40.714Z,37
2022-11-29T00:21:40.741Z,34.2143
2022-11-29T00:22:40.777Z,35.7143
2022-11-29T00:23:40.807Z,35.2143
2022-11-29T00:24:41.036Z,33.9286
2022-11-29T00:25:40.895Z,34.4286
2022-11-29T00:26:40.932Z,34.1429
2022-11-29T00:27:40.958Z,35
2022-11-29T00:28:40.987Z,35.2143
2022-11-29T00:29:41.022Z,34
2022-11-29T00:30:41.126Z,34.6429
2022-11-29T00:31:41.095Z,35.9286
2022-11-29T00:32:41.116Z,35.2143
2022-11-29T00:33:41.163Z,34.3571
2022-11-29T00:34:41.415Z,34.5
2022-11-29T00:35:41.235Z,35.9286
2022-11-29T00:36:41.277Z,35
2022-11-29T00:37:41.301Z,35.1429
2022-11-29T00:38:41.342Z,35.3571
2022-11-29T00:39:41.360Z,34.1429
2022-11-29T00:40:41.405Z,35.8571
2022-11-29T00:41:41.456Z,35.6429
2022-11-29T00:42:41.475Z,34.9286
2022-11-29T00:43:41.514Z,36.2143
2022-11-29T00:44:41.814Z,35.9286
2022-11-29T00:45:41.617Z,35.8571
2022-11-29T00:46:41.608Z,35.3571
2022-11-29T00:47:41.652Z,36.3571
2022-11-29T00:48:41.688Z,33.9286
2022-11-29T00:49:41.724Z,35.1429
2022-11-29T00:50:41.760Z,35.6429
2022-11-29T00:51:41.794Z,34.8571
2022-11-29T00:52:41.832Z,33.7143
2022-11-29T00:53:41.867Z,35.9286
2022-11-29T00:54:42.231Z,36.6429
2022-11-29T00:55:41.924Z,34.4286
2022-11-29T00:56:41.963Z,36.7143
2022-11-29T00:57:41.993Z,36
2022-11-29T00:58:42.019Z,35.2143
2022-11-29T00:59:42.055Z,33.3571
2022-11-29T01:00:42.095Z,34
2022-11-29T01:01:42.240Z,34.5
2022-11-29T01:02:42.198Z,34.4286
2022-11-29T01:03:42.196Z,34
2022-11-29T01:04:42.510Z,33.6429
2022-11-29T01:05:42.263Z,34.9286
2022-11-29T01:06:42.294Z,33.7143
2022-11-29T01:07:42.381Z,36.3571
2022-11-29T01:08:42.362Z,35.8571
2022-11-29T01:09:42.408Z,33.4286
2022-11-29T01:10:42.451Z,34.5
2022-11-29T01:11:42.475Z,34.2143
2022-11-29T01:12:42.513Z,33.1429
2022-11-29T01:13:42.557Z,33.8571
2022-11-29T01:14:43.076Z,34
2022-11-29T01:15:42.628Z,33.5
2022-11-29T01:16:42.740Z,34.9286
2022-11-29T01:17:42.695Z,35.6429
2022-11-29T01:18:42.738Z,36.4286
2022-11-29T01:19:47.827Z,35.1429
2022-11-29T01:20:42.803Z,33.7143
2022-11-29T01:21:42.839Z,34.7143
2022-11-29T01:22:42.876Z,34.1429
2022-11-29T01:23:42.910Z,35.6429
2022-11-29T01:24:43.147Z,33.6429
2022-11-29T01:25:42.979Z,33.7143
2022-11-29T01:26:43.018Z,34.7143
2022-11-29T01:27:43.050Z,36.4286
2022-11-29T01:28:43.081Z,33.9286
2022-11-29T01:29:43.113Z,36.7143
2022-11-29T01:30:43.179Z,35.8571
2022-11-29T01:31:43.181Z,34.6429
2022-11-29T01:32:43.211Z,34.6429
2022-11-29T01:33:43.235Z,34.8571
2022-11-29T01:34:43.520Z,36.4286
2022-11-29T01:35:43.306Z,35.8571
2022-11-29T01:36:43.340Z,37.2143
2022-11-29T01:37:43.385Z,33.7143
2022-11-29T01:38:43.404Z,33.3571
2022-11-29T01:39:43.441Z,32.7143
2022-11-29T01:40:43.466Z,33.9286
2022-11-29T01:41:43.501Z,34.1429
2022-11-29T01:42:43.532Z,34.4286
2022-11-29T01:43:43.577Z,33.5
2022-11-29T01:44:43.912Z,32.4286
2022-11-29T01:45:43.698Z,33.9286
2022-11-29T01:46:43.679Z,35.8571
2022-11-29T01:47:43.715Z,33.8571
2022-11-29T01:48:43.754Z,32.9286
2022-11-29T01:49:43.786Z,34
2022-11-29T01:50:43.815Z,35
2022-11-29T01:51:43.855Z,35.1429
2022-11-29T01:52:43.882Z,34.6429
2022-11-29T01:53:43.925Z,33.1429
2022-11-29T01:54:44.170Z,34.3571
2022-11-29T01:55:44.019Z,32.4286
2022-11-29T01:56:44.030Z,34.1429
2022-11-29T01:57:44.077Z,33.4286
2022-11-29T01:58:44.113Z,33.9286
2022-11-29T01:59:44.155Z,33.3571
2022-11-29T02:00:44.188Z,33.3571
2022-11-29T02:01:44.290Z,33.2143
2022-11-29T02:02:44.331Z,32.8571
2022-11-29T02:03:44.308Z,33.5
2022-11-29T02:04:44.844Z,32.7143
2022-11-29T02:05:44.382Z,33.3571
2022-11-29T02:06:44.423Z,32.8571
2022-11-29T02:07:44.588Z,31.9286
2022-11-29T02:08:44.501Z,34.3571
2022-11-29T02:09:44.530Z,33.8571
2022-11-29T02:10:44.579Z,33.5
2022-11-29T02:11:44.616Z,33
2022-11-29T02:12:44.646Z,34.1429
2022-11-29T02:13:44.684Z,33
2022-11-29T02:14:45.161Z,33.9286
2022-11-29T02:15:44.805Z,34.4286
2022-11-29T02:16:44.787Z,33
2022-11-29T02:17:44.827Z,31.6429
2022-11-29T02:18:44.856Z,33.8571
2022-11-29T02:19:44.898Z,34.5
2022-11-29T02:20:44.924Z,34.6429
2022-11-29T02:21:44.948Z,36
2022-11-29T02:22:44.987Z,33.9286
2022-11-29T02:23:45.033Z,32.5
2022-11-29T02:24:45.242Z,34.3571
2022-11-29T02:25:45.100Z,33.9286
2022-11-29T02:26:45.131Z,33.9286
2022-11-29T02:27:45.176Z,34.2143
2022-11-29T02:28:45.204Z,33.8571
2022-11-29T02:29:45.233Z,33.3571
2022-11-29T02:30:45.303Z,34.5
2022-11-29T02:31:45.308Z,33.5
2022-11-29T02:32:45.349Z,34.4286
2022-11-29T02:33:45.384Z,35.3571
2022-11-29T02:34:45.566Z,35.9286
2022-11-29T02:35:45.443Z,34.8571
2022-11-29T02:36:45.468Z,34
2022-11-29T02:37:45.501Z,33.9286
2022-11-29T02:38:45.533Z,32.8571
2022-11-29T02:39:45.582Z,33.1429
2022-11-29T02:40:45.604Z,34.1429
2022-11-29T02:41:45.656Z,34
2022-11-29T02:42:47.797Z,34.5
2022-11-29T02:43:45.726Z,34.4286
2022-11-29T02:44:46.020Z,34
2022-11-29T02:45:45.887Z,33.9286
2022-11-29T02:46:45.823Z,34.5
2022-11-29T02:47:45.862Z,34.7143
2022-11-29T02:48:45.893Z,32.1429
2022-11-29T02:49:45.924Z,32.8571
2022-11-29T02:50:45.966Z,33.3571
2022-11-29T02:51:45.996Z,34
2022-11-29T02:52:46.032Z,34.7143
2022-11-29T02:53:46.066Z,35.1429
2022-11-29T02:54:46.622Z,34.4286
2022-11-29T02:55:46.124Z,34.4286
2022-11-29T02:56:46.173Z,33.5
2022-11-29T02:57:46.212Z,33.5
2022-11-29T02:58:46.239Z,34.2143
2022-11-29T02:59:46.266Z,34.1429
2022-11-29T03:00:46.303Z,34.4286
2022-11-29T03:01:46.457Z,34.1429
2022-11-29T03:02:46.394Z,34.8571
2022-11-29T03:03:46.394Z,35.3571
2022-11-29T03:04:46.662Z,35.5
2022-11-29T03:05:46.480Z,33.1429
2022-11-29T03:06:46.504Z,35.4286
2022-11-29T03:07:46.607Z,35.1429
2022-11-29T03:08:46.580Z,33.8571
2022-11-29T03:09:46.622Z,35
2022-11-29T03:10:46.646Z,37.7143
2022-11-29T03:11:46.675Z,33.8571
2022-11-29T03:12:46.719Z,34.2143
2022-11-29T03:13:46.748Z,34.9286
2022-11-29T03:14:47.087Z,32.5
2022-11-29T03:15:46.840Z,36.2143
2022-11-29T03:16:46.863Z,35.3571
2022-11-29T03:17:46.884Z,33.3571
2022-11-29T03:18:46.917Z,34.8571
2022-11-29T03:19:46.964Z,34.6429
2022-11-29T03:20:46.996Z,33.7143
2022-11-29T03:21:47.033Z,36.6429
2022-11-29T03:22:47.055Z,35.2143
2022-11-29T03:23:47.086Z,35.5
2022-11-29T03:24:47.380Z,34.6429
2022-11-29T03:25:47.154Z,33.9286
2022-11-29T03:26:47.193Z,33.7143
2022-11-29T03:27:47.228Z,34.9286
2022-11-29T03:28:47.252Z,34.9286
2022-11-29T03:29:47.295Z,35.7143
2022-11-29T03:30:47.352Z,34.7143
2022-11-29T03:31:47.362Z,34.4286
2022-11-29T03:32:47.394Z,34.3571
2022-11-29T03:33:47.429Z,33.4286
2022-11-29T03:34:47.586Z,34
2022-11-29T03:35:47.488Z,34.4286
2022-11-29T03:36:47.524Z,34.5
2022-11-29T03:37:47.550Z,34.9286
2022-11-29T03:38:47.583Z,34
2022-11-29T03:39:47.617Z,36.4286
2022-11-29T03:40:47.655Z,36.6429
2022-11-29T03:41:47.684Z,35
2022-11-29T03:42:47.730Z,35.5
2022-11-29T03:43:47.761Z,34.9286
2022-11-29T03:44:47.804Z,33.7143
2022-11-29T03:45:47.835Z,35.4286
2022-11-29T03:46:47.857Z,33.7143
2022-11-29T03:47:47.882Z,33.9286
2022-11-29T03:48:47.920Z,37.7143
2022-11-29T03:49:47.956Z,34.4286
2022-11-29T03:50:47.996Z,35.3571
2022-11-29T03:51:48.034Z,34.3571
2022-11-29T03:52:48.058Z,36.4286
2022-11-29T03:53:48.096Z,34.2143
2022-11-29T03:54:48.119Z,35
2022-11-29T03:55:48.157Z,35.4286
2022-11-29T03:56:48.201Z,35.3571
2022-11-29T03:57:48.227Z,34.8571
2022-11-29T03:58:48.259Z,34.7143
2022-11-29T03:59:48.297Z,35.8571
2022-11-29T04:00:48.341Z,33.7143
2022-11-29T04:01:48.419Z,35.7143
2022-11-29T04:02:48.485Z,35
2022-11-29T04:03:48.453Z,36.4286
2022-11-29T04:04:48.490Z,34.6429
2022-11-29T04:05:48.529Z,35.2143
2022-11-29T04:06:48.569Z,36.4286
2022-11-29T04:07:48.696Z,34.6429
2022-11-29T04:08:48.642Z,35.2143
2022-11-29T04:09:48.681Z,35.2143
2022-11-29T04:10:48.724Z,35.6429
2022-11-29T04:11:48.755Z,34.9286
2022-11-29T04:12:48.796Z,34.7143
2022-11-29T04:13:48.832Z,35
2022-11-29T04:14:48.871Z,35.7143
2022-11-29T04:15:48.985Z,37.8571
2022-11-29T04:16:48.938Z,36.7143
2022-11-29T04:17:48.980Z,35.4286
2022-11-29T04:18:49.014Z,37.2143
2022-11-29T04:19:49.045Z,33.9286
2022-11-29T04:20:49.082Z,35.7143
2022-11-29T04:21:49.093Z,35.9286
2022-11-29T04:22:49.133Z,35.8571
2022-11-29T04:23:49.171Z,33.9286
2022-11-29T04:24:49.208Z,36
2022-11-29T04:25:49.246Z,35.7143
2022-11-29T04:26:49.274Z,36.2143
2022-11-29T04:27:49.321Z,36.9286
2022-11-29T04:28:49.350Z,35.3571
2022-11-29T04:29:49.378Z,35.3571
2022-11-29T04:30:49.480Z,35.4286
2022-11-29T04:31:49.464Z,36.8571
2022-11-29T04:32:49.505Z,36.9286
2022-11-29T04:33:49.537Z,36.7143
2022-11-29T04:34:49.571Z,35.9286
2022-11-29T04:35:49.614Z,35.8571
2022-11-29T04:36:49.659Z,38.1429
2022-11-29T04:37:49.696Z,36.1429
2022-11-29T04:38:49.729Z,36
2022-11-29T04:39:49.761Z,34.5
2022-11-29T04:40:49.787Z,36.7143
2022-11-29T04:41:49.821Z,36
2022-11-29T04:42:49.848Z,34.8571
2022-11-29T04:43:49.887Z,37.1429
2022-11-29T04:44:49.937Z,35.5
2022-11-29T04:45:49.969Z,36.4286
2022-11-29T04:46:49.998Z,34.6429
2022-11-29T04:47:50.034Z,36.1429
2022-11-29T04:48:50.057Z,35.9286
2022-11-29T04:49:50.105Z,37.7143
2022-11-29T04:50:50.134Z,34.6429
2022-11-29T04:51:50.185Z,36.1429
2022-11-29T04:52:50.216Z,35.6429
2022-11-29T04:53:50.259Z,37.3571
2022-11-29T04:54:50.294Z,37.1429
2022-11-29T04:55:50.318Z,37.4286
2022-11-29T04:56:50.360Z,36.1429
2022-11-29T04:57:50.386Z,36.1429
2022-11-29T04:58:50.428Z,35.1429
2022-11-29T04:59:50.460Z,36
2022-11-29T05:00:50.485Z,38
2022-11-29T05:01:50.589Z,37.6429
2022-11-29T05:02:50.612Z,37.4286
2022-11-29T05:03:56.730Z,36.2143
2022-11-29T05:04:50.623Z,36.7143
2022-11-29T05:05:50.653Z,36.3571
2022-11-29T05:06:50.694Z,36.5
2022-11-29T05:07:50.783Z,36.5
2022-11-29T05:08:50.768Z,38.4286
2022-11-29T05:09:50.802Z,34.9286
2022-11-29T05:10:50.843Z,38
2022-11-29T05:11:50.876Z,35
2022-11-29T05:12:50.909Z,36.7143
2022-11-29T05:13:50.953Z,37.1429
2022-11-29T05:14:50.985Z,36.6429
2022-11-29T05:15:51.092Z,37
2022-11-29T05:16:51.041Z,38.1429
2022-11-29T05:17:51.081Z,36.2143
2022-11-29T05:18:51.120Z,36.8571
2022-11-29T05:19:51.155Z,36.7143
2022-11-29T05:20:51.192Z,36.7143
2022-11-29T05:21:51.227Z,36.5
2022-11-29T05:22:51.259Z,34.7143
2022-11-29T05:23:51.288Z,38.1429
2022-11-29T05:24:51.331Z,38
2022-11-29T05:25:51.360Z,37.7143
2022-11-29T05:26:51.403Z,34.8571
2022-11-29T05:27:51.433Z,37.4286
2022-11-29T05:28:51.472Z,38.7143
2022-11-29T05:29:51.505Z,37.5
2022-11-29T05:30:51.592Z,37.8571
2022-11-29T05:31:51.580Z,37.5
2022-11-29T05:32:51.610Z,36.1429
2022-11-29T05:33:51.653Z,38.6429
2022-11-29T05:34:51.853Z,36.2143
2022-11-29T05:35:51.730Z,36.1429
2022-11-29T05:36:51.754Z,38.7143
2022-11-29T05:37:51.789Z,36.6429
2022-11-29T05:38:51.827Z,36.1429
2022-11-29T05:39:51.860Z,36.2143
2022-11-29T05:40:51.903Z,37.8571
2022-11-29T05:41:51.918Z,37.3571
2022-11-29T05:42:51.960Z,37.7143
2022-11-29T05:43:52.004Z,38
2022-11-29T05:44:52.034Z,38.8571
2022-11-29T05:45:52.067Z,36
2022-11-29T05:46:52.156Z,35.6429
2022-11-29T05:47:52.127Z,36.6429
2022-11-29T05:48:52.162Z,37.7143
2022-11-29T05:49:52.200Z,37.3571
2022-11-29T05:50:52.237Z,37.8571
2022-11-29T05:51:52.269Z,36.3571
2022-11-29T05:52:52.293Z,35.8571
2022-11-29T05:53:52.334Z,37
2022-11-29T05:54:52.367Z,38.9286
2022-11-29T05:55:52.410Z,36.1429
2022-11-29T05:56:52.448Z,36.2143
2022-11-29T05:57:52.487Z,35.3571
2022-11-29T05:58:52.525Z,36.9286
2022-11-29T05:59:52.557Z,35.7143
2022-11-29T06:00:52.593Z,37.1429
2022-11-29T06:01:52.681Z,35.9286
2022-11-29T06:02:52.780Z,37.6429
2022-11-29T06:03:52.706Z,36
2022-11-29T06:04:52.737Z,36
2022-11-29T06:05:52.786Z,38.2143
2022-11-29T06:06:52.812Z,37.9286
2022-11-29T06:07:52.898Z,36.7143
2022-11-29T06:08:52.887Z,36.9286
2022-11-29T06:09:52.921Z,38.6429
2022-11-29T06:10:52.958Z,37.4286
2022-11-29T06:11:53.004Z,37.2143
2022-11-29T06:12:53.031Z,36.4286
2022-11-29T06:13:53.072Z,36.6429
2022-11-29T06:14:53.106Z,36.2143
2022-11-29T06:15:53.193Z,37
2022-11-29T06:16:53.173Z,36.8571
2022-11-29T06:17:53.199Z,36.6429
2022-11-29T06:18:53.227Z,36.2143
2022-11-29T06:19:53.274Z,36
2022-11-29T06:20:53.305Z,37.8571
2022-11-29T06:21:53.337Z,37.4286
2022-11-29T06:22:53.375Z,37.6429
2022-11-29T06:23:53.401Z,36.4286
2022-11-29T06:24:53.444Z,37
2022-11-29T06:25:53.478Z,36.1429
2022-11-29T06:26:53.519Z,37
2022-11-29T06:27:53.560Z,36.4286
2022-11-29T06:28:53.604Z,37
2022-11-29T06:29:53.637Z,35.1429
2022-11-29T06:30:53.668Z,37.5
2022-11-29T06:31:53.703Z,37.3571
2022-11-29T06:32:53.743Z,37.5
2022-11-29T06:33:53.775Z,38.4286
2022-11-29T06:34:53.808Z,36.1429
2022-11-29T06:35:53.844Z,35
2022-11-29T06:36:53.885Z,36.9286
2022-11-29T06:37:36.703Z,35.7143
2022-11-29T06:38:36.743Z,38
2022-11-29T06:39:36.785Z,36.1429
2022-11-29T06:40:36.821Z,37.5
2022-11-29T06:41:36.857Z,37.3571
2022-11-29T06:42:36.889Z,35
2022-11-29T06:43:36.927Z,35.6429
2022-11-29T06:44:36.963Z,37
2022-11-29T06:45:37.004Z,36.2143
2022-11-29T06:46:37.077Z,35.3571
2022-11-29T06:47:37.069Z,37.1429
2022-11-29T06:48:37.118Z,37.4286
2022-11-29T06:49:37.138Z,37.9286
2022-11-29T06:50:37.181Z,37.5
2022-11-29T06:51:37.213Z,35.9286
2022-11-29T06:52:37.248Z,39.1429
2022-11-29T06:53:37.292Z,36.9286
2022-11-29T06:54:37.326Z,37
2022-11-29T06:55:37.367Z,37.3571
2022-11-29T06:56:40.644Z,38.1429
2022-11-29T06:57:37.440Z,37.4286
2022-11-29T06:58:37.474Z,38.9286
2022-11-29T06:59:37.505Z,38.4286
2022-11-29T07:00:37.627Z,37.1429
2022-11-29T07:01:37.625Z,39.3571
2022-11-29T07:02:37.587Z,39.3571
2022-11-29T07:03:37.624Z,40.8571
2022-11-29T07:04:42.629Z,40.7143
2022-11-29T07:05:37.699Z,38.6429
2022-11-29T07:06:37.742Z,37
2022-11-29T07:07:37.815Z,37.6429
2022-11-29T07:08:37.812Z,39.1429
2022-11-29T07:10:15.006Z,39.8571
2022-11-29T07:11:12.155Z,36
2022-11-29T07:12:12.181Z,36
2022-11-29T07:13:12.221Z,37.3571
2022-11-29T07:14:12.259Z,36.6429
2022-11-29T07:15:16.956Z,37.4286
2022-11-29T07:16:17.032Z,38.4286
2022-11-29T07:17:17.047Z,37.7143
2022-11-29T07:18:17.086Z,39
2022-11-29T07:19:17.098Z,36.2143
2022-11-29T07:20:17.132Z,38.5
2022-11-29T07:21:17.161Z,36
2022-11-29T07:22:17.206Z,36.7143
2022-11-29T07:23:17.211Z,37
2022-11-29T07:24:17.276Z,37.4286
2022-11-29T07:25:17.274Z,35.1429
2022-11-29T07:26:17.311Z,35.9286
2022-11-29T07:27:17.362Z,36.2143
2022-11-29T07:28:17.360Z,36.2143
2022-11-29T07:29:17.390Z,34.4286
2022-11-29T07:30:17.426Z,37
2022-11-29T07:31:17.513Z,36.3571
2022-11-29T07:32:17.516Z,36.6429
2022-11-29T07:33:17.521Z,37.7143
2022-11-29T07:34:17.561Z,38.4286
2022-11-29T07:35:17.601Z,37.3571
2022-11-29T07:36:17.628Z,36
2022-11-29T07:37:17.690Z,36.7143
2022-11-29T07:38:17.697Z,38.7143
2022-11-29T07:39:17.719Z,35.7143
2022-11-29T07:40:17.738Z,35.6429
2022-11-29T07:41:17.775Z,35
2022-11-29T07:42:17.837Z,35.3571
2022-11-29T07:43:17.836Z,36.3571
2022-11-29T07:44:17.871Z,37.9286
2022-11-29T07:45:17.918Z,37.6429
2022-11-29T07:46:17.988Z,36.6429
2022-11-29T07:47:17.960Z,34.9286
2022-11-29T07:48:17.990Z,36.2143
2022-11-29T07:49:18.016Z,40.5
2022-11-29T07:50:18.066Z,43
2022-11-29T07:51:18.075Z,51.2143
2022-11-29T07:52:18.106Z,41.8571
2022-11-29T07:53:18.149Z,39.8571
2022-11-29T07:54:18.158Z,38.9286
2022-11-29T07:55:19.159Z,38.6429
2022-11-29T07:56:18.216Z,35.4286
2022-11-29T07:57:18.252Z,35.7143
2022-11-29T07:58:18.373Z,35.1429
2022-11-29T07:59:18.307Z,36.1429
2022-11-29T08:00:18.356Z,34.8571
2022-11-29T08:01:18.454Z,35
2022-11-29T08:02:18.409Z,36.2143
2022-11-29T08:03:18.421Z,37.1429
2022-11-29T08:04:18.443Z,34.9286
2022-11-29T08:05:18.502Z,35.5
2022-11-29T08:06:18.506Z,36.2143
2022-11-29T08:07:18.584Z,36
2022-11-29T08:08:18.560Z,38.5
2022-11-29T08:09:18.589Z,38.7143
2022-11-29T08:10:18.655Z,36.1429
2022-11-29T08:11:18.655Z,36.1429
2022-11-29T08:12:18.673Z,36.1429
2022-11-29T08:13:18.705Z,36.1429
2022-11-29T08:14:18.734Z,37
2022-11-29T08:15:18.866Z,36.7143
2022-11-29T08:16:18.890Z,36.9286
2022-11-29T08:17:18.820Z,35.5
2022-11-29T08:18:18.852Z,37.4286
2022-11-29T08:19:18.888Z,36.5
2022-11-29T08:20:18.941Z,35.8571
2022-11-29T08:21:18.943Z,35.2143
2022-11-29T08:22:18.969Z,37.3571
2022-11-29T08:23:18.999Z,35.3571
2022-11-29T08:24:19.037Z,35.3571
2022-11-29T08:25:19.086Z,35.5
2022-11-29T08:26:19.098Z,35.7143
2022-11-29T08:27:19.134Z,35
2022-11-29T08:28:19.165Z,35.9286
2022-11-29T08:29:19.219Z,34.6429
2022-11-29T08:30:19.230Z,37.7143
2022-11-29T08:31:19.321Z,36.7143
2022-11-29T08:32:19.309Z,34.8571
2022-11-29T08:33:19.346Z,35.5
2022-11-29T08:34:19.370Z,36.7143
2022-11-29T08:35:19.422Z,37.4286
2022-11-29T08:36:19.428Z,35.4286
2022-11-29T08:37:19.473Z,35.9286
2022-11-29T08:38:19.472Z,35.9286
2022-11-29T08:39:19.506Z,37.4286
2022-11-29T08:40:19.569Z,36.6429
2022-11-29T08:41:19.564Z,35.6429
2022-11-29T08:42:19.591Z,37.9286
2022-11-29T08:43:19.644Z,37
2022-11-29T08:44:19.657Z,35.4286
2022-11-29T08:45:19.677Z,37.2143
2022-11-29T08:46:19.753Z,35.2143
2022-11-29T08:47:19.734Z,37.5
2022-11-29T08:48:19.786Z,34.8571
2022-11-29T08:49:19.802Z,35.1429
2022-11-29T08:50:19.820Z,34.2143
2022-11-29T08:51:19.872Z,36.9286
2022-11-29T08:52:19.877Z,37.1429
2022-11-29T08:53:19.911Z,37.8571
2022-11-29T08:54:19.931Z,35.9286
2022-11-29T08:55:19.996Z,36
2022-11-29T08:57:04.339Z,38.2143
2022-11-29T08:57:40.004Z,35.9286
2022-11-29T08:58:20.059Z,36.1429
2022-11-29T08:59:20.086Z,36.5
2022-11-29T09:00:20.138Z,35.1429
2022-11-29T09:01:20.215Z,37.2143
2022-11-29T09:02:20.192Z,36.9286
2022-11-29T09:03:20.202Z,35.3571
2022-11-29T09:04:20.240Z,35.2143
2022-11-29T09:05:20.300Z,35.9286
2022-11-29T09:06:20.311Z,36.4286
2022-11-29T09:07:20.369Z,34.9286
2022-11-29T09:08:20.397Z,35.7143
2022-11-29T09:09:20.382Z,34.3571
2022-11-29T09:10:20.440Z,34.5
2022-11-29T09:11:20.452Z,35.5
2022-11-29T09:12:20.487Z,35.8571
2022-11-29T09:13:20.522Z,36.9286
2022-11-29T09:14:20.575Z,34.8571
2022-11-29T09:15:20.593Z,37.8571
2022-11-29T09:16:20.684Z,35.1429
2022-11-29T09:17:20.679Z,34.9286
2022-11-29T09:18:20.679Z,35.5
2022-11-29T09:19:20.718Z,36.3571
2022-11-29T09:20:20.767Z,35.4286
2022-11-29T09:21:20.788Z,34.8571
2022-11-29T09:22:20.810Z,34.6429
2022-11-29T09:23:20.825Z,35.3571
2022-11-29T09:24:20.858Z,34.9286
2022-11-29T09:25:20.885Z,35.5
2022-11-29T09:26:20.933Z,34.4286
2022-11-29T09:27:20.946Z,34.4286
2022-11-29T09:28:20.977Z,35.7143
2022-11-29T09:29:21.008Z,35.5
2022-11-29T09:30:23.640Z,35.5
2022-11-29T09:31:21.128Z,34.6429
2022-11-29T09:32:21.097Z,33.9286
2022-11-29T09:33:21.127Z,34.4286
2022-11-29T09:34:21.158Z,34.8571
2022-11-29T09:35:21.219Z,36.9286
2022-11-29T09:36:26.570Z,34.1429
2022-11-29T09:37:21.270Z,34.4286
2022-11-29T09:38:21.267Z,34.8571
2022-11-29T09:39:21.298Z,34.6429
2022-11-29T09:40:21.445Z,35
2022-11-29T09:41:21.349Z,34.8571
2022-11-29T09:42:21.406Z,34.2143
2022-11-29T09:43:21.415Z,34.8571
2022-11-29T09:44:21.433Z,35.7143
2022-11-29T09:45:21.469Z,36.4286
2022-11-29T09:46:21.539Z,34.5
2022-11-29T09:47:21.555Z,34.3571
2022-11-29T09:48:21.566Z,34.5
2022-11-29T09:49:21.620Z,35.8571
2022-11-29T09:50:21.627Z,34.9286
2022-11-29T09:51:21.654Z,33.9286
2022-11-29T09:52:21.685Z,33.2143
2022-11-29T09:53:21.742Z,34
2022-11-29T09:54:21.748Z,34.1429
2022-11-29T09:55:21.774Z,35.7143
2022-11-29T09:56:21.803Z,34.2143
2022-11-29T09:57:21.862Z,33.7143
2022-11-29T09:58:21.870Z,33
2022-11-29T09:59:21.901Z,34.1429
2022-11-29T10:00:21.930Z,33.2143
2022-11-29T10:01:22.038Z,34.1429
2022-11-29T10:02:22.243Z,34
2022-11-29T10:03:22.027Z,34.9286
2022-11-29T10:04:22.059Z,33.9286
2022-11-29T10:05:22.093Z,33.1429
2022-11-29T10:06:22.141Z,33.6429
2022-11-29T10:07:22.189Z,34.5
2022-11-29T10:08:22.182Z,33.4286
2022-11-29T10:09:22.214Z,32.2143
2022-11-29T10:10:22.271Z,34.8571
2022-11-29T10:11:22.300Z,34.8571
2022-11-29T10:12:22.322Z,33.2143
2022-11-29T10:13:22.379Z,33.6429
2022-11-29T10:14:22.385Z,35
2022-11-29T10:15:22.414Z,33.7143
2022-11-29T10:16:22.497Z,33.6429
2022-11-29T10:17:22.486Z,32.4286
2022-11-29T10:18:22.537Z,33.5
2022-11-29T10:19:22.545Z,33
2022-11-29T10:20:22.579Z,34
2022-11-29T10:21:22.615Z,36.5
2022-11-29T10:22:22.675Z,35.3571
2022-11-29T10:23:22.686Z,34.5
2022-11-29T10:24:22.707Z,34.7143
2022-11-29T10:25:22.766Z,34.7143
2022-11-29T10:26:22.771Z,33.2143
2022-11-29T10:27:22.809Z,33.6429
2022-11-29T10:28:22.869Z,33.9286
2022-11-29T10:29:22.866Z,33.7143
2022-11-29T10:30:22.920Z,33.6429
2022-11-29T10:31:22.931Z,33.8571
2022-11-29T10:32:22.979Z,33.4286
2022-11-29T10:33:23.014Z,37.2143
2022-11-29T10:34:23.050Z,35.1429
2022-11-29T10:35:23.060Z,33.9286
2022-11-29T10:36:23.097Z,34.5
2022-11-29T10:37:23.128Z,35.1429
2022-11-29T10:38:30.823Z,35.5
2022-11-29T10:39:23.210Z,34.8571
2022-11-29T10:40:23.274Z,34.7143
2022-11-29T10:41:23.254Z,34.1429
2022-11-29T10:42:23.284Z,35.3571
2022-11-29T10:43:23.328Z,34.9286
2022-11-29T10:44:23.371Z,36
2022-11-29T10:45:23.390Z,34.5
2022-11-29T10:46:23.444Z,35.2143
2022-11-29T10:47:23.461Z,34.6429
2022-11-29T10:48:23.473Z,36.5
2022-11-29T10:49:23.515Z,35.5
2022-11-29T10:50:23.564Z,35.7143
2022-11-29T10:51:23.564Z,36.5
2022-11-29T10:52:23.606Z,35
2022-11-29T10:53:23.635Z,34.8571
2022-11-29T10:54:23.686Z,36.2143
2022-11-29T10:55:23.713Z,34.3571
2022-11-29T10:56:23.731Z,36.2143
2022-11-29T10:57:23.750Z,34.4286
2022-11-29T10:58:27.634Z,35
2022-11-29T10:59:23.810Z,34.5
2022-11-29T11:00:23.841Z,33.6429
2022-11-29T11:01:24.051Z,36.8571
2022-11-29T11:02:23.928Z,34.8571
2022-11-29T11:03:23.936Z,35.7143
2022-11-29T11:04:23.987Z,35.2143
2022-11-29T11:05:24.062Z,36.4286
2022-11-29T11:06:24.035Z,36.7143
2022-11-29T11:07:24.109Z,37.8571
2022-11-29T11:08:24.090Z,35.9286
2022-11-29T11:09:24.231Z,33.6429
2022-11-29T11:10:24.172Z,36.6429
2022-11-29T11:11:24.180Z,36.2143
2022-11-29T11:11:40.360Z,36.3571
2022-11-29T11:12:40.387Z,35.9286
2022-11-29T11:13:40.424Z,35
2022-11-29T11:14:40.448Z,36.3571
2022-11-29T11:15:40.517Z,35.5
2022-11-29T11:16:40.605Z,35.6429
2022-11-29T11:17:40.561Z,37
2022-11-29T11:18:40.604Z,39
2022-11-29T11:19:40.638Z,36.5
2022-11-29T11:20:40.686Z,34.8571
2022-11-29T11:21:40.697Z,35
2022-11-29T11:22:40.739Z,38.1429
2022-11-29T11:23:42.904Z,37.4286
2022-11-29T11:24:40.819Z,33.8571
2022-11-29T11:25:40.860Z,34.8571
2022-11-29T11:26:40.902Z,37.6429
2022-11-29T11:27:40.915Z,35.3571
2022-11-29T11:28:40.958Z,33.6429
2022-11-29T11:29:40.997Z,36.8571
2022-11-29T11:30:41.069Z,36.3571
2022-11-29T11:31:41.096Z,36.3571
2022-11-29T11:32:41.108Z,35.5
2022-11-29T11:33:41.142Z,34.8571
2022-11-29T11:34:41.177Z,37.5
2022-11-29T11:35:41.218Z,36
2022-11-29T11:36:41.273Z,36.4286
2022-11-29T11:37:41.279Z,38.9286
2022-11-29T11:38:41.310Z,36
2022-11-29T11:39:41.374Z,33.6429
2022-11-29T11:40:41.450Z,35.7143
2022-11-29T11:41:41.419Z,35.4286
2022-11-29T11:42:41.453Z,36.3571
2022-11-29T11:43:41.487Z,36.5
2022-11-29T11:44:57.998Z,35.5
2022-11-29T11:45:41.553Z,35
2022-11-29T11:46:41.641Z,35
2022-11-29T11:47:41.616Z,35
2022-11-29T11:48:41.657Z,35.5
2022-11-29T11:49:41.695Z,34.9286
2022-11-29T11:50:41.718Z,34.5
2022-11-29T11:51:41.758Z,34.7143
2022-11-29T11:52:46.113Z,35.2143
2022-11-29T11:53:39.406Z,35.5
2022-11-29T11:54:39.429Z,33.9286
2022-11-29T11:55:39.471Z,34.6429
2022-11-29T11:56:39.485Z,36.2143
2022-11-29T11:57:39.514Z,35.1429
2022-11-29T11:58:39.565Z,35
2022-11-29T11:59:39.580Z,33.8571
2022-11-29T12:00:06.941Z,34.5
2022-11-29T12:01:04.347Z,37.3571
2022-11-29T12:01:18.956Z,36.7143
2022-11-29T12:02:09.576Z,35.7143
2022-11-29T12:02:54.774Z,35.1429
2022-11-29T12:03:54.725Z,34.5
2022-11-29T12:04:54.768Z,35
2022-11-29T12:05:03.978Z,35.5
2022-11-29T12:06:01.451Z,35.5
2022-11-29T12:07:01.476Z,35.8571
2022-11-29T12:08:08.515Z,35.9286
2022-11-29T12:09:01.536Z,33.5
2022-11-29T12:10:01.582Z,36.1429
2022-11-29T12:11:07.036Z,35.3571
2022-11-29T12:12:01.643Z,34.9286
2022-11-29T12:13:01.685Z,37.1429
2022-11-29T12:13:18.460Z,36.1429
2022-11-29T12:14:18.516Z,35.1429
2022-11-29T12:15:18.536Z,34.1429
2022-11-29T12:16:18.663Z,34
2022-11-29T12:17:20.142Z,34.3571
2022-11-29T12:18:18.638Z,35
2022-11-29T12:19:18.680Z,35.1429
2022-11-29T12:20:18.707Z,36.4286
2022-11-29T12:21:18.777Z,35.8571
2022-11-29T12:22:18.785Z,34.5
2022-11-29T12:23:18.811Z,35.8571